METAR AND TAF INFORMATION
METAR FOR SBUL
ADDS - METARS form results

(0804 UTC 27 May 2020)
Data provider http://aviationweather.gov/metar/data/
 
Forecast for: SBUL (UBERLANDIA , BR)
Text: TAF SBUL 270200Z 2706/2718 19003KT CAVOK TN09/2710Z TX21/2718Z
Forecast period: 0600 to 1000 UTC 27 May 2020
Forecast type: FROM: standard forecast or significant change
Winds: from the S (190 degrees) at 3 MPH (3 knots; 1.5 m/s)
Visibility: 6 or more miles 10+ km)
Ceiling: unknown
Clouds: missing
Weather: no significant weather forecast for this period
Text: BECMG 2710/2712 19006KT RMK PHM
Forecast period: 1000 to 1800 UTC 27 May 2020
Forecast type: BECOMING: Conditions expected to become as follows by 1200 UTC 27 May 2020
Winds: from the S (190 degrees) at 7 MPH (6 knots; 3.1 m/s)
Visibility: 6 or more miles 10+ km)
Ceiling: unknown
Clouds: missing
Weather: no significant weather forecast for this period

 AIRPORT MAP

 RUNWAY INFORMATION
Runway 4 Runway length 6398 ft Runway width 148 ft
Runway elevation 0 ft Runway displaced threshold 0 ft Runway heading 0
Runway 22 Runway length 6398 ft Runway width 148 ft
Runway elevation 0 ft Runway displaced threshold 0 ft Runway heading 0

 AIRPORT FREQUENCIES
Type APP Name APP Frequency 120.8 MHZ
Type RDO Name RDO Frequency 118.8 MHZ
Type TWR Name TWR Frequency 118.8 MHZ

 AIRPORT NEAR NAVIGATION AIDS
Type VOR-DME Name Uberlandia Frequency 116100 KHZ
Type NDB Name Uberlandia Frequency 350 KHZ